sensor_id;sensor_type;location;lat;lon;timestamp;P1;durP1;ratioP1;P2;durP2;ratioP2
78612;SDS011;67933;51.060;3.638;2023-03-26T00:02:08;17.65;;;2.70;;
78612;SDS011;67933;51.060;3.638;2023-03-26T00:04:33;17.83;;;3.08;;
78612;SDS011;67933;51.060;3.638;2023-03-26T00:06:59;16.88;;;3.38;;
78612;SDS011;67933;51.060;3.638;2023-03-26T00:09:24;20.52;;;3.13;;
78612;SDS011;67933;51.060;3.638;2023-03-26T00:11:49;16.88;;;3.10;;
78612;SDS011;67933;51.060;3.638;2023-03-26T00:14:15;19.85;;;4.47;;
78612;SDS011;67933;51.060;3.638;2023-03-26T00:16:41;11.38;;;2.55;;
78612;SDS011;67933;51.060;3.638;2023-03-26T00:19:08;14.27;;;3.00;;
78612;SDS011;67933;51.060;3.638;2023-03-26T00:21:34;12.93;;;3.78;;
78612;SDS011;67933;51.060;3.638;2023-03-26T00:24:01;14.32;;;3.33;;
78612;SDS011;67933;51.060;3.638;2023-03-26T00:26:29;12.13;;;3.25;;
78612;SDS011;67933;51.060;3.638;2023-03-26T00:28:55;19.52;;;3.25;;
78612;SDS011;67933;51.060;3.638;2023-03-26T00:31:21;27.33;;;3.25;;
78612;SDS011;67933;51.060;3.638;2023-03-26T00:33:49;19.05;;;3.88;;
78612;SDS011;67933;51.060;3.638;2023-03-26T00:36:18;12.43;;;3.00;;
78612;SDS011;67933;51.060;3.638;2023-03-26T00:38:44;14.68;;;3.35;;
78612;SDS011;67933;51.060;3.638;2023-03-26T00:41:14;21.10;;;3.22;;
78612;SDS011;67933;51.060;3.638;2023-03-26T00:43:42;13.23;;;3.20;;
78612;SDS011;67933;51.060;3.638;2023-03-26T00:46:12;21.08;;;3.10;;
78612;SDS011;67933;51.060;3.638;2023-03-26T00:48:37;16.20;;;2.90;;
78612;SDS011;67933;51.060;3.638;2023-03-26T00:51:03;14.63;;;2.75;;
78612;SDS011;67933;51.060;3.638;2023-03-26T00:53:30;17.48;;;3.78;;
78612;SDS011;67933;51.060;3.638;2023-03-26T00:55:56;15.45;;;3.45;;
78612;SDS011;67933;51.060;3.638;2023-03-26T00:58:24;9.77;;;2.60;;
78612;SDS011;67933;51.060;3.638;2023-03-26T01:00:51;9.23;;;2.20;;
78612;SDS011;67933;51.060;3.638;2023-03-26T01:03:21;12.73;;;2.10;;
78612;SDS011;67933;51.060;3.638;2023-03-26T01:06:07;11.93;;;1.88;;
78612;SDS011;67933;51.060;3.638;2023-03-26T01:08:38;6.07;;;2.10;;
78612;SDS011;67933;51.060;3.638;2023-03-26T01:11:08;11.20;;;2.90;;
78612;SDS011;67933;51.060;3.638;2023-03-26T01:13:40;15.15;;;3.25;;
78612;SDS011;67933;51.060;3.638;2023-03-26T01:17:04;10.52;;;3.58;;
78612;SDS011;67933;51.060;3.638;2023-03-26T01:19:20;16.40;;;3.30;;
78612;SDS011;67933;51.060;3.638;2023-03-26T01:22:02;14.27;;;3.10;;
78612;SDS011;67933;51.060;3.638;2023-03-26T01:24:29;21.20;;;3.60;;
78612;SDS011;67933;51.060;3.638;2023-03-26T01:29:39;15.88;;;3.88;;
78612;SDS011;67933;51.060;3.638;2023-03-26T01:35:21;11.88;;;2.67;;
78612;SDS011;67933;51.060;3.638;2023-03-26T01:46:06;12.25;;;4.28;;
78612;SDS011;67933;51.060;3.638;2023-03-26T01:48:36;11.95;;;2.50;;
78612;SDS011;67933;51.060;3.638;2023-03-26T01:51:04;16.20;;;2.78;;
78612;SDS011;67933;51.060;3.638;2023-03-26T01:53:31;12.10;;;2.55;;
78612;SDS011;67933;51.060;3.638;2023-03-26T01:56:09;14.25;;;2.95;;
78612;SDS011;67933;51.060;3.638;2023-03-26T02:07:04;14.60;;;3.17;;
78612;SDS011;67933;51.060;3.638;2023-03-26T02:09:43;9.57;;;2.63;;
78612;SDS011;67933;51.060;3.638;2023-03-26T02:12:15;8.85;;;2.80;;
78612;SDS011;67933;51.060;3.638;2023-03-26T02:14:41;19.88;;;4.00;;
78612;SDS011;67933;51.060;3.638;2023-03-26T02:17:08;14.45;;;4.65;;
78612;SDS011;67933;51.060;3.638;2023-03-26T02:19:35;13.88;;;2.97;;
78612;SDS011;67933;51.060;3.638;2023-03-26T02:22:05;13.20;;;3.70;;
78612;SDS011;67933;51.060;3.638;2023-03-26T02:24:35;14.88;;;4.10;;
78612;SDS011;67933;51.060;3.638;2023-03-26T02:27:01;13.98;;;2.75;;
78612;SDS011;67933;51.060;3.638;2023-03-26T02:29:27;13.43;;;3.28;;
78612;SDS011;67933;51.060;3.638;2023-03-26T02:31:52;16.63;;;4.65;;
78612;SDS011;67933;51.060;3.638;2023-03-26T02:34:17;10.48;;;2.65;;
78612;SDS011;67933;51.060;3.638;2023-03-26T02:36:43;12.02;;;3.05;;
78612;SDS011;67933;51.060;3.638;2023-03-26T02:39:09;12.45;;;3.08;;
78612;SDS011;67933;51.060;3.638;2023-03-26T02:41:38;14.20;;;3.17;;
78612;SDS011;67933;51.060;3.638;2023-03-26T02:44:04;12.13;;;2.65;;
78612;SDS011;67933;51.060;3.638;2023-03-26T02:46:30;13.55;;;2.63;;
78612;SDS011;67933;51.060;3.638;2023-03-26T02:48:57;13.95;;;3.08;;
78612;SDS011;67933;51.060;3.638;2023-03-26T02:51:23;13.95;;;3.85;;
78612;SDS011;67933;51.060;3.638;2023-03-26T02:53:49;10.57;;;2.75;;
78612;SDS011;67933;51.060;3.638;2023-03-26T02:56:18;14.48;;;3.10;;
78612;SDS011;67933;51.060;3.638;2023-03-26T02:58:43;11.35;;;2.72;;
78612;SDS011;67933;51.060;3.638;2023-03-26T03:01:10;9.90;;;2.78;;
78612;SDS011;67933;51.060;3.638;2023-03-26T03:03:37;11.57;;;2.92;;
78612;SDS011;67933;51.060;3.638;2023-03-26T03:06:02;12.32;;;2.13;;
78612;SDS011;67933;51.060;3.638;2023-03-26T03:08:28;11.60;;;2.65;;
78612;SDS011;67933;51.060;3.638;2023-03-26T03:11:01;11.95;;;3.05;;
78612;SDS011;67933;51.060;3.638;2023-03-26T03:13:28;10.23;;;2.22;;
78612;SDS011;67933;51.060;3.638;2023-03-26T03:15:53;12.05;;;3.10;;
78612;SDS011;67933;51.060;3.638;2023-03-26T03:18:20;10.02;;;2.78;;
78612;SDS011;67933;51.060;3.638;2023-03-26T03:20:45;12.18;;;2.67;;
78612;SDS011;67933;51.060;3.638;2023-03-26T03:23:11;12.45;;;2.13;;
78612;SDS011;67933;51.060;3.638;2023-03-26T03:25:37;10.57;;;2.60;;
78612;SDS011;67933;51.060;3.638;2023-03-26T03:28:04;10.52;;;2.88;;
78612;SDS011;67933;51.060;3.638;2023-03-26T03:30:30;8.82;;;2.28;;
78612;SDS011;67933;51.060;3.638;2023-03-26T03:32:55;11.45;;;3.70;;
78612;SDS011;67933;51.060;3.638;2023-03-26T03:35:22;11.15;;;2.67;;
78612;SDS011;67933;51.060;3.638;2023-03-26T03:37:48;11.05;;;2.97;;
78612;SDS011;67933;51.060;3.638;2023-03-26T03:40:14;16.88;;;3.50;;
78612;SDS011;67933;51.060;3.638;2023-03-26T03:42:39;7.93;;;2.03;;
78612;SDS011;67933;51.060;3.638;2023-03-26T03:45:05;12.77;;;2.60;;
78612;SDS011;67933;51.060;3.638;2023-03-26T03:47:31;10.93;;;3.42;;
78612;SDS011;67933;51.060;3.638;2023-03-26T03:49:56;12.38;;;2.80;;
78612;SDS011;67933;51.060;3.638;2023-03-26T03:52:24;10.43;;;3.05;;
78612;SDS011;67933;51.060;3.638;2023-03-26T03:54:51;9.98;;;2.40;;
78612;SDS011;67933;51.060;3.638;2023-03-26T03:57:17;12.23;;;4.07;;
78612;SDS011;67933;51.060;3.638;2023-03-26T03:59:43;11.82;;;2.90;;
78612;SDS011;67933;51.060;3.638;2023-03-26T04:02:09;9.35;;;2.60;;
78612;SDS011;67933;51.060;3.638;2023-03-26T04:04:35;9.23;;;2.42;;
78612;SDS011;67933;51.060;3.638;2023-03-26T04:07:01;10.27;;;2.40;;
78612;SDS011;67933;51.060;3.638;2023-03-26T04:09:27;10.93;;;2.95;;
78612;SDS011;67933;51.060;3.638;2023-03-26T04:11:53;8.15;;;2.00;;
78612;SDS011;67933;51.060;3.638;2023-03-26T04:14:18;9.68;;;2.25;;
78612;SDS011;67933;51.060;3.638;2023-03-26T04:16:43;14.23;;;3.03;;
78612;SDS011;67933;51.060;3.638;2023-03-26T04:19:09;8.65;;;2.42;;
78612;SDS011;67933;51.060;3.638;2023-03-26T04:21:34;17.63;;;3.28;;
78612;SDS011;67933;51.060;3.638;2023-03-26T04:24:02;9.93;;;2.90;;
78612;SDS011;67933;51.060;3.638;2023-03-26T04:26:29;7.80;;;2.10;;
78612;SDS011;67933;51.060;3.638;2023-03-26T04:28:56;10.48;;;2.55;;
78612;SDS011;67933;51.060;3.638;2023-03-26T04:31:25;8.55;;;3.08;;
78612;SDS011;67933;51.060;3.638;2023-03-26T04:33:57;7.55;;;2.75;;
78612;SDS011;67933;51.060;3.638;2023-03-26T04:36:29;9.77;;;2.75;;
78612;SDS011;67933;51.060;3.638;2023-03-26T04:38:56;8.38;;;2.58;;
78612;SDS011;67933;51.060;3.638;2023-03-26T04:41:26;12.63;;;2.50;;
78612;SDS011;67933;51.060;3.638;2023-03-26T04:43:53;7.78;;;2.83;;
78612;SDS011;67933;51.060;3.638;2023-03-26T04:46:19;12.13;;;2.88;;
78612;SDS011;67933;51.060;3.638;2023-03-26T04:48:51;9.00;;;2.30;;
78612;SDS011;67933;51.060;3.638;2023-03-26T04:51:19;11.82;;;2.45;;
78612;SDS011;67933;51.060;3.638;2023-03-26T04:53:52;9.65;;;2.92;;
78612;SDS011;67933;51.060;3.638;2023-03-26T04:59:07;9.57;;;2.78;;
78612;SDS011;67933;51.060;3.638;2023-03-26T05:01:37;13.00;;;3.10;;
78612;SDS011;67933;51.060;3.638;2023-03-26T05:04:04;15.07;;;3.00;;
78612;SDS011;67933;51.060;3.638;2023-03-26T05:06:29;5.65;;;2.17;;
78612;SDS011;67933;51.060;3.638;2023-03-26T05:08:58;8.27;;;2.40;;
78612;SDS011;67933;51.060;3.638;2023-03-26T05:11:25;13.38;;;3.17;;
78612;SDS011;67933;51.060;3.638;2023-03-26T05:13:51;15.57;;;3.65;;
78612;SDS011;67933;51.060;3.638;2023-03-26T05:16:16;6.60;;;2.55;;
78612;SDS011;67933;51.060;3.638;2023-03-26T05:18:42;9.48;;;2.30;;
78612;SDS011;67933;51.060;3.638;2023-03-26T05:21:07;12.60;;;2.30;;
78612;SDS011;67933;51.060;3.638;2023-03-26T05:23:32;9.65;;;2.20;;
78612;SDS011;67933;51.060;3.638;2023-03-26T05:25:58;8.05;;;2.65;;
78612;SDS011;67933;51.060;3.638;2023-03-26T05:28:23;8.80;;;2.10;;
78612;SDS011;67933;51.060;3.638;2023-03-26T05:30:50;10.05;;;3.00;;
78612;SDS011;67933;51.060;3.638;2023-03-26T05:33:17;7.70;;;1.92;;
78612;SDS011;67933;51.060;3.638;2023-03-26T05:35:43;7.13;;;1.77;;
78612;SDS011;67933;51.060;3.638;2023-03-26T05:38:09;7.00;;;2.47;;
78612;SDS011;67933;51.060;3.638;2023-03-26T05:40:34;6.25;;;1.83;;
78612;SDS011;67933;51.060;3.638;2023-03-26T05:43:00;7.72;;;1.65;;
78612;SDS011;67933;51.060;3.638;2023-03-26T05:45:25;7.18;;;1.30;;
78612;SDS011;67933;51.060;3.638;2023-03-26T05:47:51;4.93;;;1.13;;
78612;SDS011;67933;51.060;3.638;2023-03-26T05:50:18;3.13;;;1.13;;
78612;SDS011;67933;51.060;3.638;2023-03-26T05:52:43;2.80;;;1.13;;
78612;SDS011;67933;51.060;3.638;2023-03-26T05:55:08;5.45;;;1.55;;
78612;SDS011;67933;51.060;3.638;2023-03-26T05:57:34;4.55;;;1.27;;
78612;SDS011;67933;51.060;3.638;2023-03-26T06:00:01;5.32;;;1.30;;
78612;SDS011;67933;51.060;3.638;2023-03-26T06:02:28;5.63;;;2.10;;
78612;SDS011;67933;51.060;3.638;2023-03-26T06:04:53;2.92;;;1.42;;
78612;SDS011;67933;51.060;3.638;2023-03-26T06:07:20;7.53;;;2.10;;
78612;SDS011;67933;51.060;3.638;2023-03-26T06:09:46;8.20;;;1.85;;
78612;SDS011;67933;51.060;3.638;2023-03-26T06:12:11;5.65;;;2.10;;
78612;SDS011;67933;51.060;3.638;2023-03-26T06:14:37;9.07;;;1.83;;
78612;SDS011;67933;51.060;3.638;2023-03-26T06:17:02;6.22;;;1.90;;
78612;SDS011;67933;51.060;3.638;2023-03-26T06:19:28;5.75;;;1.98;;
78612;SDS011;67933;51.060;3.638;2023-03-26T06:21:53;7.45;;;2.08;;
78612;SDS011;67933;51.060;3.638;2023-03-26T06:24:19;5.03;;;2.35;;
78612;SDS011;67933;51.060;3.638;2023-03-26T06:26:45;8.70;;;4.00;;
78612;SDS011;67933;51.060;3.638;2023-03-26T06:29:11;7.35;;;2.03;;
78612;SDS011;67933;51.060;3.638;2023-03-26T06:31:37;5.22;;;2.50;;
78612;SDS011;67933;51.060;3.638;2023-03-26T06:34:02;6.95;;;2.15;;
78612;SDS011;67933;51.060;3.638;2023-03-26T06:36:28;11.00;;;2.53;;
78612;SDS011;67933;51.060;3.638;2023-03-26T06:38:53;4.93;;;2.17;;
78612;SDS011;67933;51.060;3.638;2023-03-26T06:41:19;3.85;;;1.63;;
78612;SDS011;67933;51.060;3.638;2023-03-26T06:43:47;4.38;;;1.95;;
78612;SDS011;67933;51.060;3.638;2023-03-26T06:46:12;5.82;;;2.10;;
78612;SDS011;67933;51.060;3.638;2023-03-26T06:48:38;6.72;;;2.20;;
78612;SDS011;67933;51.060;3.638;2023-03-26T06:51:06;8.50;;;2.40;;
78612;SDS011;67933;51.060;3.638;2023-03-26T06:53:31;6.95;;;2.22;;
78612;SDS011;67933;51.060;3.638;2023-03-26T06:55:57;5.30;;;1.80;;
78612;SDS011;67933;51.060;3.638;2023-03-26T06:58:22;5.70;;;1.65;;
78612;SDS011;67933;51.060;3.638;2023-03-26T07:00:51;6.00;;;2.30;;
78612;SDS011;67933;51.060;3.638;2023-03-26T07:03:17;4.90;;;2.17;;
78612;SDS011;67933;51.060;3.638;2023-03-26T07:05:42;5.15;;;1.95;;
78612;SDS011;67933;51.060;3.638;2023-03-26T07:08:11;5.32;;;1.88;;
78612;SDS011;67933;51.060;3.638;2023-03-26T07:10:36;4.80;;;1.88;;
78612;SDS011;67933;51.060;3.638;2023-03-26T07:13:01;6.43;;;2.22;;
78612;SDS011;67933;51.060;3.638;2023-03-26T07:15:27;8.52;;;2.08;;
78612;SDS011;67933;51.060;3.638;2023-03-26T07:17:53;1.98;;;1.40;;
78612;SDS011;67933;51.060;3.638;2023-03-26T07:20:18;3.03;;;1.58;;
78612;SDS011;67933;51.060;3.638;2023-03-26T07:22:44;3.67;;;1.52;;
78612;SDS011;67933;51.060;3.638;2023-03-26T07:25:10;4.45;;;1.75;;
78612;SDS011;67933;51.060;3.638;2023-03-26T07:30:08;3.83;;;1.40;;
78612;SDS011;67933;51.060;3.638;2023-03-26T07:32:40;4.82;;;1.60;;
78612;SDS011;67933;51.060;3.638;2023-03-26T07:43:20;3.30;;;1.45;;
78612;SDS011;67933;51.060;3.638;2023-03-26T07:45:57;4.75;;;1.83;;
78612;SDS011;67933;51.060;3.638;2023-03-26T07:48:24;4.90;;;1.83;;
78612;SDS011;67933;51.060;3.638;2023-03-26T07:50:53;7.32;;;2.03;;
78612;SDS011;67933;51.060;3.638;2023-03-26T07:53:20;3.03;;;1.38;;
78612;SDS011;67933;51.060;3.638;2023-03-26T07:56:00;2.20;;;1.30;;
78612;SDS011;67933;51.060;3.638;2023-03-26T08:15:40;1.27;;;1.00;;
78612;SDS011;67933;51.060;3.638;2023-03-26T08:18:23;2.22;;;1.00;;
78612;SDS011;67933;51.060;3.638;2023-03-26T08:20:59;3.65;;;1.30;;
78612;SDS011;67933;51.060;3.638;2023-03-26T08:23:38;3.35;;;1.63;;
78612;SDS011;67933;51.060;3.638;2023-03-26T08:26:33;1.50;;;1.00;;
78612;SDS011;67933;51.060;3.638;2023-03-26T08:31:35;2.30;;;1.50;;
78612;SDS011;67933;51.060;3.638;2023-03-26T08:34:03;3.17;;;1.13;;
78612;SDS011;67933;51.060;3.638;2023-03-26T08:36:28;3.70;;;1.40;;
78612;SDS011;67933;51.060;3.638;2023-03-26T08:38:54;3.65;;;1.25;;
78612;SDS011;67933;51.060;3.638;2023-03-26T09:01:19;3.88;;;1.77;;
78612;SDS011;67933;51.060;3.638;2023-03-26T09:07:00;5.35;;;1.75;;
78612;SDS011;67933;51.060;3.638;2023-03-26T09:32:09;2.53;;;1.70;;
78612;SDS011;67933;51.060;3.638;2023-03-26T09:37:32;3.65;;;1.70;;
78612;SDS011;67933;51.060;3.638;2023-03-26T09:42:52;2.67;;;1.60;;
78612;SDS011;67933;51.060;3.638;2023-03-26T09:45:35;3.45;;;1.80;;
78612;SDS011;67933;51.060;3.638;2023-03-26T09:48:12;5.50;;;2.65;;
78612;SDS011;67933;51.060;3.638;2023-03-26T09:53:55;4.10;;;1.55;;
78612;SDS011;67933;51.060;3.638;2023-03-26T09:56:36;3.42;;;1.45;;
78612;SDS011;67933;51.060;3.638;2023-03-26T10:01:51;2.78;;;1.58;;
78612;SDS011;67933;51.060;3.638;2023-03-26T10:07:23;7.18;;;3.13;;
78612;SDS011;67933;51.060;3.638;2023-03-26T10:15:58;3.03;;;2.38;;
78612;SDS011;67933;51.060;3.638;2023-03-26T10:21:16;5.65;;;2.08;;
78612;SDS011;67933;51.060;3.638;2023-03-26T10:29:05;5.75;;;2.13;;
78612;SDS011;67933;51.060;3.638;2023-03-26T10:40:06;4.65;;;1.42;;
78612;SDS011;67933;51.060;3.638;2023-03-26T10:45:39;4.75;;;1.75;;
78612;SDS011;67933;51.060;3.638;2023-03-26T10:53:36;4.93;;;1.90;;
78612;SDS011;67933;51.060;3.638;2023-03-26T10:56:11;2.53;;;1.95;;
78612;SDS011;67933;51.060;3.638;2023-03-26T10:58:45;1.52;;;1.42;;
78612;SDS011;67933;51.060;3.638;2023-03-26T11:04:26;4.00;;;1.80;;
78612;SDS011;67933;51.060;3.638;2023-03-26T11:10:12;2.92;;;1.10;;
78612;SDS011;67933;51.060;3.638;2023-03-26T11:12:52;3.25;;;1.10;;
78612;SDS011;67933;51.060;3.638;2023-03-26T11:15:23;4.97;;;1.20;;
78612;SDS011;67933;51.060;3.638;2023-03-26T11:17:57;1.60;;;1.17;;
78612;SDS011;67933;51.060;3.638;2023-03-26T11:20:47;1.45;;;0.90;;
78612;SDS011;67933;51.060;3.638;2023-03-26T11:23:38;2.42;;;1.20;;
78612;SDS011;67933;51.060;3.638;2023-03-26T11:34:18;4.65;;;1.60;;
78612;SDS011;67933;51.060;3.638;2023-03-26T11:36:50;2.00;;;1.27;;
78612;SDS011;67933;51.060;3.638;2023-03-26T11:39:25;2.30;;;1.70;;
78612;SDS011;67933;51.060;3.638;2023-03-26T11:44:58;2.63;;;2.10;;
78612;SDS011;67933;51.060;3.638;2023-03-26T11:47:31;2.00;;;1.48;;
78612;SDS011;67933;51.060;3.638;2023-03-26T11:50:03;5.05;;;2.00;;
78612;SDS011;67933;51.060;3.638;2023-03-26T11:52:31;3.75;;;2.35;;
78612;SDS011;67933;51.060;3.638;2023-03-26T11:54:56;9.70;;;5.65;;
78612;SDS011;67933;51.060;3.638;2023-03-26T11:57:28;4.85;;;3.65;;
78612;SDS011;67933;51.060;3.638;2023-03-26T12:00:06;4.72;;;3.03;;
78612;SDS011;67933;51.060;3.638;2023-03-26T12:02:45;4.30;;;2.28;;
78612;SDS011;67933;51.060;3.638;2023-03-26T12:05:13;3.45;;;1.80;;
78612;SDS011;67933;51.060;3.638;2023-03-26T12:07:46;1.15;;;0.93;;
78612;SDS011;67933;51.060;3.638;2023-03-26T12:10:36;2.67;;;1.30;;
78612;SDS011;67933;51.060;3.638;2023-03-26T12:16:35;4.32;;;2.13;;
78612;SDS011;67933;51.060;3.638;2023-03-26T12:18:44;2.35;;;1.13;;
78612;SDS011;67933;51.060;3.638;2023-03-26T12:21:12;4.38;;;1.77;;
78612;SDS011;67933;51.060;3.638;2023-03-26T12:23:45;3.50;;;1.83;;
78612;SDS011;67933;51.060;3.638;2023-03-26T12:26:39;2.95;;;1.88;;
78612;SDS011;67933;51.060;3.638;2023-03-26T12:29:16;4.13;;;2.55;;
78612;SDS011;67933;51.060;3.638;2023-03-26T12:34:30;3.53;;;2.28;;
78612;SDS011;67933;51.060;3.638;2023-03-26T12:36:59;4.53;;;2.08;;
78612;SDS011;67933;51.060;3.638;2023-03-26T12:39:30;5.43;;;2.47;;
78612;SDS011;67933;51.060;3.638;2023-03-26T12:41:59;6.07;;;2.20;;
78612;SDS011;67933;51.060;3.638;2023-03-26T12:44:30;5.55;;;2.22;;
78612;SDS011;67933;51.060;3.638;2023-03-26T12:47:12;3.10;;;1.60;;
78612;SDS011;67933;51.060;3.638;2023-03-26T12:49:38;4.00;;;1.30;;
78612;SDS011;67933;51.060;3.638;2023-03-26T12:52:08;1.80;;;1.40;;
78612;SDS011;67933;51.060;3.638;2023-03-26T12:57:18;3.17;;;1.60;;
78612;SDS011;67933;51.060;3.638;2023-03-26T13:08:36;4.28;;;2.20;;
78612;SDS011;67933;51.060;3.638;2023-03-26T13:11:10;5.07;;;2.53;;
78612;SDS011;67933;51.060;3.638;2023-03-26T13:22:25;5.95;;;3.60;;
78612;SDS011;67933;51.060;3.638;2023-03-26T13:25:17;4.07;;;2.10;;
78612;SDS011;67933;51.060;3.638;2023-03-26T13:28:13;4.53;;;3.17;;
78612;SDS011;67933;51.060;3.638;2023-03-26T13:33:32;4.22;;;2.53;;
78612;SDS011;67933;51.060;3.638;2023-03-26T13:36:07;3.83;;;2.30;;
78612;SDS011;67933;51.060;3.638;2023-03-26T13:47:16;4.32;;;2.80;;
78612;SDS011;67933;51.060;3.638;2023-03-26T13:49:50;7.20;;;2.85;;
78612;SDS011;67933;51.060;3.638;2023-03-26T13:54:51;5.93;;;3.63;;
78612;SDS011;67933;51.060;3.638;2023-03-26T13:57:45;6.15;;;3.17;;
78612;SDS011;67933;51.060;3.638;2023-03-26T14:00:22;3.22;;;2.55;;
78612;SDS011;67933;51.060;3.638;2023-03-26T14:02:54;5.32;;;2.90;;
78612;SDS011;67933;51.060;3.638;2023-03-26T14:05:27;7.22;;;2.78;;
78612;SDS011;67933;51.060;3.638;2023-03-26T14:08:05;4.43;;;3.03;;
78612;SDS011;67933;51.060;3.638;2023-03-26T14:10:42;4.93;;;3.00;;
78612;SDS011;67933;51.060;3.638;2023-03-26T14:13:23;4.47;;;3.10;;
78612;SDS011;67933;51.060;3.638;2023-03-26T14:23:41;4.87;;;2.87;;
78612;SDS011;67933;51.060;3.638;2023-03-26T14:31:41;5.50;;;4.10;;
78612;SDS011;67933;51.060;3.638;2023-03-26T14:50:45;12.90;;;5.60;;
78612;SDS011;67933;51.060;3.638;2023-03-26T14:53:20;11.98;;;6.05;;
78612;SDS011;67933;51.060;3.638;2023-03-26T14:56:02;11.52;;;6.30;;
78612;SDS011;67933;51.060;3.638;2023-03-26T15:35:48;10.35;;;4.65;;
78612;SDS011;67933;51.060;3.638;2023-03-26T15:52:41;10.65;;;2.50;;
78612;SDS011;67933;51.060;3.638;2023-03-26T15:55:31;14.10;;;2.80;;
78612;SDS011;67933;51.060;3.638;2023-03-26T16:01:09;12.05;;;3.05;;
78612;SDS011;67933;51.060;3.638;2023-03-26T16:03:49;9.32;;;3.08;;
78612;SDS011;67933;51.060;3.638;2023-03-26T16:06:29;13.25;;;2.92;;
78612;SDS011;67933;51.060;3.638;2023-03-26T16:11:58;10.65;;;2.92;;
78612;SDS011;67933;51.060;3.638;2023-03-26T16:17:01;10.10;;;2.60;;
78612;SDS011;67933;51.060;3.638;2023-03-26T16:27:47;7.05;;;2.28;;
78612;SDS011;67933;51.060;3.638;2023-03-26T16:30:36;11.05;;;2.75;;
78612;SDS011;67933;51.060;3.638;2023-03-26T16:33:12;11.27;;;1.90;;
78612;SDS011;67933;51.060;3.638;2023-03-26T16:38:23;8.98;;;2.13;;
78612;SDS011;67933;51.060;3.638;2023-03-26T16:40:57;11.55;;;2.30;;
78612;SDS011;67933;51.060;3.638;2023-03-26T16:54:25;9.25;;;2.80;;
78612;SDS011;67933;51.060;3.638;2023-03-26T17:00:00;15.32;;;3.15;;
78612;SDS011;67933;51.060;3.638;2023-03-26T17:11:08;9.55;;;2.28;;
78612;SDS011;67933;51.060;3.638;2023-03-26T17:16:24;9.52;;;4.88;;
78612;SDS011;67933;51.060;3.638;2023-03-26T17:18:59;8.73;;;2.42;;
78612;SDS011;67933;51.060;3.638;2023-03-26T17:21:53;16.77;;;6.20;;
78612;SDS011;67933;51.060;3.638;2023-03-26T17:32:39;19.25;;;8.07;;
78612;SDS011;67933;51.060;3.638;2023-03-26T17:35:15;11.13;;;2.60;;
78612;SDS011;67933;51.060;3.638;2023-03-26T17:37:42;9.07;;;3.33;;
78612;SDS011;67933;51.060;3.638;2023-03-26T17:43:34;13.00;;;5.57;;
78612;SDS011;67933;51.060;3.638;2023-03-26T17:49:24;14.75;;;6.07;;
78612;SDS011;67933;51.060;3.638;2023-03-26T17:51:51;14.73;;;5.43;;
78612;SDS011;67933;51.060;3.638;2023-03-26T17:54:32;13.23;;;4.25;;
78612;SDS011;67933;51.060;3.638;2023-03-26T17:57:11;15.05;;;4.82;;
78612;SDS011;67933;51.060;3.638;2023-03-26T17:59:41;5.75;;;2.00;;
78612;SDS011;67933;51.060;3.638;2023-03-26T18:02:15;11.20;;;3.95;;
78612;SDS011;67933;51.060;3.638;2023-03-26T18:04:44;10.75;;;2.88;;
78612;SDS011;67933;51.060;3.638;2023-03-26T18:20:50;4.90;;;2.10;;
78612;SDS011;67933;51.060;3.638;2023-03-26T18:23:28;6.65;;;2.05;;
78612;SDS011;67933;51.060;3.638;2023-03-26T18:29:18;7.55;;;2.10;;
78612;SDS011;67933;51.060;3.638;2023-03-26T18:31:48;6.93;;;2.03;;
78612;SDS011;67933;51.060;3.638;2023-03-26T18:34:18;9.02;;;2.35;;
78612;SDS011;67933;51.060;3.638;2023-03-26T18:36:45;6.60;;;2.55;;
78612;SDS011;67933;51.060;3.638;2023-03-26T18:39:21;7.53;;;2.47;;
78612;SDS011;67933;51.060;3.638;2023-03-26T18:41:46;5.25;;;1.90;;
78612;SDS011;67933;51.060;3.638;2023-03-26T18:44:13;6.07;;;2.40;;
78612;SDS011;67933;51.060;3.638;2023-03-26T18:46:41;6.32;;;2.22;;
78612;SDS011;67933;51.060;3.638;2023-03-26T18:49:13;4.65;;;1.83;;
78612;SDS011;67933;51.060;3.638;2023-03-26T18:51:41;8.68;;;1.98;;
78612;SDS011;67933;51.060;3.638;2023-03-26T18:54:08;5.35;;;1.90;;
78612;SDS011;67933;51.060;3.638;2023-03-26T18:56:41;7.50;;;2.28;;
78612;SDS011;67933;51.060;3.638;2023-03-26T18:59:30;9.88;;;2.05;;
78612;SDS011;67933;51.060;3.638;2023-03-26T19:02:00;7.03;;;2.00;;
78612;SDS011;67933;51.060;3.638;2023-03-26T19:04:29;4.82;;;2.35;;
78612;SDS011;67933;51.060;3.638;2023-03-26T19:06:58;6.88;;;2.00;;
78612;SDS011;67933;51.060;3.638;2023-03-26T19:09:25;7.40;;;2.28;;
78612;SDS011;67933;51.060;3.638;2023-03-26T19:11:55;6.55;;;2.60;;
78612;SDS011;67933;51.060;3.638;2023-03-26T19:14:23;6.55;;;1.45;;
78612;SDS011;67933;51.060;3.638;2023-03-26T19:16:54;10.38;;;1.70;;
78612;SDS011;67933;51.060;3.638;2023-03-26T19:19:28;7.93;;;1.88;;
78612;SDS011;67933;51.060;3.638;2023-03-26T19:21:57;7.60;;;2.15;;
78612;SDS011;67933;51.060;3.638;2023-03-26T19:24:22;6.90;;;1.77;;
78612;SDS011;67933;51.060;3.638;2023-03-26T19:26:49;5.68;;;1.98;;
78612;SDS011;67933;51.060;3.638;2023-03-26T19:29:26;6.55;;;2.38;;
78612;SDS011;67933;51.060;3.638;2023-03-26T19:31:59;5.18;;;1.65;;
78612;SDS011;67933;51.060;3.638;2023-03-26T19:34:33;5.43;;;1.40;;
78612;SDS011;67933;51.060;3.638;2023-03-26T19:37:24;6.82;;;1.60;;
78612;SDS011;67933;51.060;3.638;2023-03-26T19:39:51;11.90;;;1.90;;
78612;SDS011;67933;51.060;3.638;2023-03-26T19:42:20;5.80;;;1.80;;
78612;SDS011;67933;51.060;3.638;2023-03-26T19:44:52;4.10;;;1.60;;
78612;SDS011;67933;51.060;3.638;2023-03-26T19:47:21;5.90;;;1.50;;
78612;SDS011;67933;51.060;3.638;2023-03-26T19:49:53;5.93;;;1.63;;
78612;SDS011;67933;51.060;3.638;2023-03-26T19:52:32;8.18;;;2.78;;
78612;SDS011;67933;51.060;3.638;2023-03-26T19:57:36;7.90;;;2.20;;
78612;SDS011;67933;51.060;3.638;2023-03-26T20:00:05;6.80;;;2.30;;
78612;SDS011;67933;51.060;3.638;2023-03-26T20:02:37;3.33;;;1.50;;
78612;SDS011;67933;51.060;3.638;2023-03-26T20:05:23;6.80;;;1.85;;
78612;SDS011;67933;51.060;3.638;2023-03-26T20:07:53;5.97;;;2.10;;
78612;SDS011;67933;51.060;3.638;2023-03-26T20:10:21;4.50;;;1.40;;
78612;SDS011;67933;51.060;3.638;2023-03-26T20:12:47;10.80;;;1.70;;
78612;SDS011;67933;51.060;3.638;2023-03-26T20:15:23;3.33;;;1.50;;
78612;SDS011;67933;51.060;3.638;2023-03-26T20:17:50;3.42;;;1.52;;
78612;SDS011;67933;51.060;3.638;2023-03-26T20:20:19;6.15;;;2.00;;
78612;SDS011;67933;51.060;3.638;2023-03-26T20:22:47;6.78;;;1.77;;
78612;SDS011;67933;51.060;3.638;2023-03-26T20:27:41;5.75;;;2.08;;
78612;SDS011;67933;51.060;3.638;2023-03-26T20:30:07;7.18;;;1.60;;
78612;SDS011;67933;51.060;3.638;2023-03-26T20:32:33;3.30;;;1.10;;
78612;SDS011;67933;51.060;3.638;2023-03-26T20:34:58;5.10;;;1.30;;
78612;SDS011;67933;51.060;3.638;2023-03-26T20:37:24;4.95;;;2.45;;
78612;SDS011;67933;51.060;3.638;2023-03-26T20:39:51;5.65;;;1.30;;
78612;SDS011;67933;51.060;3.638;2023-03-26T20:42:17;7.97;;;1.48;;
78612;SDS011;67933;51.060;3.638;2023-03-26T20:44:42;7.07;;;1.55;;
78612;SDS011;67933;51.060;3.638;2023-03-26T20:47:10;5.18;;;1.23;;
78612;SDS011;67933;51.060;3.638;2023-03-26T20:49:36;8.23;;;1.98;;
78612;SDS011;67933;51.060;3.638;2023-03-26T20:52:02;9.10;;;2.13;;
78612;SDS011;67933;51.060;3.638;2023-03-26T20:54:27;7.53;;;1.80;;
78612;SDS011;67933;51.060;3.638;2023-03-26T20:56:56;7.05;;;1.65;;
78612;SDS011;67933;51.060;3.638;2023-03-26T20:59:22;9.10;;;2.03;;
78612;SDS011;67933;51.060;3.638;2023-03-26T21:01:53;6.07;;;1.50;;
78612;SDS011;67933;51.060;3.638;2023-03-26T21:04:20;5.95;;;1.67;;
78612;SDS011;67933;51.060;3.638;2023-03-26T21:06:46;3.47;;;1.70;;
78612;SDS011;67933;51.060;3.638;2023-03-26T21:09:13;5.85;;;1.50;;